Time;durP1;ratioP1;P1;durP2;ratioP2;P2;SDS_P1;SDS_P2;PMS_P1;PMS_P2;Temp;Humidity;BMP_temperature;BMP_pressure;BME280_temperature;BME280_humidity;BME280_pressure;Samples;Min_cycle;Max_cycle;Signal;HPM_P1;HPM_P2
2023/03/14 00:02:09;;;;;;;;;;;15.70;97.80;;;;;;5110355;28;20269;-88
2023/03/14 00:04:35;;;;;;;;;;;15.70;97.80;;;;;;5109276;28;19946;-88
2023/03/14 00:07:01;;;;;;;;;;;15.70;97.80;;;;;;5073529;28;19919;-88
2023/03/14 00:09:26;;;;;;;;;;;15.70;97.70;;;;;;5092197;28;19920;-88
2023/03/14 00:11:53;;;;;;;;;;;15.70;97.80;;;;;;5110077;28;19951;-88
2023/03/14 00:14:18;;;;;;;;;;;15.70;97.70;;;;;;5076301;28;19908;-88
2023/03/14 00:16:47;;;;;;;;;;;15.70;97.70;;;;;;5111873;28;19914;-87
2023/03/14 00:19:12;;;;;;;;;;;15.70;97.70;;;;;;5111550;28;19961;-87
2023/03/14 00:21:38;;;;;;;;;;;15.70;97.60;;;;;;5112642;28;19920;-87
2023/03/14 00:24:04;;;;;;;;;;;15.70;97.60;;;;;;5112075;28;19985;-88
2023/03/14 00:26:29;;;;;;;;;;;15.70;97.60;;;;;;5111983;28;19912;-88
2023/03/14 00:28:55;;;;;;;;;;;15.70;97.60;;;;;;5094443;28;19908;-88
2023/03/14 00:31:21;;;;;;;;;;;15.70;97.60;;;;;;5112653;28;20003;-88
2023/03/14 00:33:46;;;;;;;;;;;15.70;97.60;;;;;;5078197;28;20278;-88
2023/03/14 00:36:13;;;;;;;;;;;15.60;97.60;;;;;;5111733;28;20032;-88
2023/03/14 00:38:40;;;;;;;;;;;15.60;97.60;;;;;;5095661;28;19916;-88
2023/03/14 00:41:07;;;;;;;;;;;15.60;97.50;;;;;;5078146;28;20282;-88
2023/03/14 00:43:33;;;;;;;;;;;15.60;97.50;;;;;;5077094;28;20087;-88
2023/03/14 00:45:58;;;;;;;;;;;15.70;97.50;;;;;;5110672;28;19934;-88
2023/03/14 00:48:24;;;;;;;;;;;15.70;97.50;;;;;;5111799;28;19908;-86
2023/03/14 00:50:50;;;;;;;;;;;15.60;97.40;;;;;;5111907;28;19908;-88
2023/03/14 00:53:16;;;;;;;;;;;15.60;97.40;;;;;;5077527;28;20178;-88
2023/03/14 00:55:43;;;;;;;;;;;15.60;97.40;;;;;;5077658;28;20300;-88
2023/03/14 00:58:09;;;;;;;;;;;15.60;97.40;;;;;;5096009;28;19912;-88
2023/03/14 01:00:35;;;;;;;;;;;15.60;97.40;;;;;;5099536;28;20013;-88
2023/03/14 01:03:00;;;;;;;;;;;15.60;97.40;;;;;;5081987;28;19914;-88
2023/03/14 01:05:26;;;;;;;;;;;15.60;97.30;;;;;;5115112;28;19920;-88
2023/03/14 01:07:52;;;;;;;;;;;15.60;97.30;;;;;;5080010;28;19943;-87
2023/03/14 01:10:18;;;;;;;;;;;15.60;97.30;;;;;;5114659;28;20020;-88
2023/03/14 01:12:43;;;;;;;;;;;15.60;97.30;;;;;;5080623;28;20253;-88
2023/03/14 01:15:09;;;;;;;;;;;15.60;97.30;;;;;;5080547;28;19919;-88
2023/03/14 01:17:37;;;;;;;;;;;15.60;97.30;;;;;;5080112;28;19908;-88
2023/03/14 01:20:04;;;;;;;;;;;15.60;97.30;;;;;;5114552;28;19912;-88
2023/03/14 01:22:30;;;;;;;;;;;15.60;97.30;;;;;;5080522;28;19919;-88
2023/03/14 01:24:55;;;;;;;;;;;15.60;97.30;;;;;;5081911;28;19916;-88
2023/03/14 01:27:21;;;;;;;;;;;15.60;97.20;;;;;;5114902;28;19959;-88
2023/03/14 01:29:47;;;;;;;;;;;15.60;97.20;;;;;;5078750;28;19908;-88
2023/03/14 01:32:12;;;;;;;;;;;15.60;97.20;;;;;;5113270;28;19977;-88
2023/03/14 01:34:38;;;;;;;;;;;15.60;97.20;;;;;;5113368;28;19937;-89
2023/03/14 01:37:04;;;;;;;;;;;15.50;97.20;;;;;;5114015;28;19912;-87
2023/03/14 01:39:29;;;;;;;;;;;15.50;97.20;;;;;;5113184;28;19951;-88
2023/03/14 01:41:55;;;;;;;;;;;15.50;97.20;;;;;;5113180;28;19908;-87
2023/03/14 01:44:20;;;;;;;;;;;15.50;97.20;;;;;;5078912;28;19909;-88
2023/03/14 01:46:46;;;;;;;;;;;15.50;97.20;;;;;;5114067;28;19938;-86
2023/03/14 01:49:12;;;;;;;;;;;15.50;97.20;;;;;;5080225;28;19919;-87
2023/03/14 01:52:06;;;;;;;;;;;15.50;97.20;;;;;;5114101;28;19916;-88
2023/03/14 01:54:34;;;;;;;;;;;15.50;97.20;;;;;;5079914;28;19919;-87
2023/03/14 01:57:09;;;;;;;;;;;15.50;97.20;;;;;;5097443;28;19908;-87
2023/03/14 01:59:35;;;;;;;;;;;15.50;97.30;;;;;;5114604;28;20197;-87
2023/03/14 02:02:01;;;;;;;;;;;15.50;97.30;;;;;;5080947;28;19962;-87
2023/03/14 02:04:30;;;;;;;;;;;15.40;97.20;;;;;;5080805;28;20302;-87
2023/03/14 02:07:18;;;;;;;;;;;15.40;97.20;;;;;;5079537;28;19911;-87
2023/03/14 02:09:44;;;;;;;;;;;15.40;97.20;;;;;;5072495;28;19928;-87
2023/03/14 02:12:11;;;;;;;;;;;15.40;97.20;;;;;;5077857;28;19918;-87
2023/03/14 02:14:37;;;;;;;;;;;15.40;97.20;;;;;;5079418;28;19912;-87
2023/03/14 02:17:04;;;;;;;;;;;15.40;97.20;;;;;;5079533;28;19912;-87
2023/03/14 02:19:33;;;;;;;;;;;15.40;97.20;;;;;;5096619;28;19934;-87
2023/03/14 02:22:10;;;;;;;;;;;15.40;97.30;;;;;;5112481;28;20147;-87
2023/03/14 02:25:08;;;;;;;;;;;15.30;97.20;;;;;;5077789;28;20312;-87
2023/03/14 02:27:34;;;;;;;;;;;15.30;97.20;;;;;;5046035;28;19919;-87
2023/03/14 02:30:02;;;;;;;;;;;15.30;97.20;;;;;;5078803;28;20209;-87
2023/03/14 02:32:29;;;;;;;;;;;15.30;97.20;;;;;;5078694;28;20247;-87
2023/03/14 02:34:56;;;;;;;;;;;15.30;97.20;;;;;;5078556;28;19919;-87
2023/03/14 02:37:23;;;;;;;;;;;15.30;97.20;;;;;;5078696;28;19998;-87
2023/03/14 02:39:51;;;;;;;;;;;15.30;97.20;;;;;;5078665;28;19922;-88
2023/03/14 02:42:22;;;;;;;;;;;15.30;97.20;;;;;;5096309;28;19916;-87
2023/03/14 02:45:20;;;;;;;;;;;15.30;97.20;;;;;;5079929;28;19908;-87
2023/03/14 02:47:49;;;;;;;;;;;15.30;97.20;;;;;;5080277;28;19912;-87
2023/03/14 02:50:18;;;;;;;;;;;15.30;97.20;;;;;;5079414;28;19909;-88
2023/03/14 02:52:43;;;;;;;;;;;15.30;97.20;;;;;;5079061;28;19916;-87
2023/03/14 02:55:09;;;;;;;;;;;15.30;97.20;;;;;;5097288;28;19908;-87
2023/03/14 02:57:35;;;;;;;;;;;15.30;97.20;;;;;;5098346;28;20287;-87
2023/03/14 03:00:01;;;;;;;;;;;15.30;97.20;;;;;;5080464;28;20285;-87
2023/03/14 03:02:27;;;;;;;;;;;15.30;97.20;;;;;;5080852;28;19947;-87
2023/03/14 03:04:53;;;;;;;;;;;15.30;97.20;;;;;;5079970;28;20393;-87
2023/03/14 03:07:19;;;;;;;;;;;15.30;97.20;;;;;;5079308;28;19912;-87
2023/03/14 03:09:45;;;;;;;;;;;15.30;97.20;;;;;;5112396;28;19937;-87
2023/03/14 03:12:10;;;;;;;;;;;15.30;97.20;;;;;;5113171;28;19924;-87
2023/03/14 03:14:37;;;;;;;;;;;15.20;97.10;;;;;;5096442;28;19973;-87
2023/03/14 03:17:04;;;;;;;;;;;15.20;97.10;;;;;;5095825;28;19908;-87
2023/03/14 03:19:29;;;;;;;;;;;15.20;97.10;;;;;;5079186;28;19907;-87
2023/03/14 03:21:55;;;;;;;;;;;15.20;97.10;;;;;;5078490;28;20204;-87
2023/03/14 03:24:21;;;;;;;;;;;15.20;97.10;;;;;;5079483;28;19919;-87
2023/03/14 03:26:46;;;;;;;;;;;15.20;97.10;;;;;;5097494;28;20068;-87
2023/03/14 03:29:12;;;;;;;;;;;15.20;97.10;;;;;;5097469;28;20269;-88
2023/03/14 03:31:38;;;;;;;;;;;15.20;97.10;;;;;;5096977;28;20237;-88
2023/03/14 03:34:03;;;;;;;;;;;15.20;97.10;;;;;;5078212;28;19916;-87
2023/03/14 03:36:29;;;;;;;;;;;15.20;97.10;;;;;;5111785;28;19994;-87
2023/03/14 03:38:54;;;;;;;;;;;15.20;97.10;;;;;;5111859;28;19912;-87
2023/03/14 03:41:20;;;;;;;;;;;15.20;97.10;;;;;;5111991;28;20167;-87
2023/03/14 03:43:46;;;;;;;;;;;15.20;97.10;;;;;;5111965;28;20022;-87
2023/03/14 03:46:11;;;;;;;;;;;15.20;97.10;;;;;;5095561;28;19967;-87
2023/03/14 03:48:37;;;;;;;;;;;15.20;97.10;;;;;;5078100;28;19908;-86
2023/03/14 03:51:03;;;;;;;;;;;15.20;97.10;;;;;;5111550;28;19931;-87
2023/03/14 03:53:28;;;;;;;;;;;15.20;97.10;;;;;;5077889;28;19908;-87
2023/03/14 03:55:54;;;;;;;;;;;15.20;97.10;;;;;;5111745;28;20003;-87
2023/03/14 03:58:19;;;;;;;;;;;15.20;97.10;;;;;;5109571;28;19908;-87
2023/03/14 04:00:46;;;;;;;;;;;15.20;97.10;;;;;;5109643;28;19908;-87
2023/03/14 04:03:11;;;;;;;;;;;15.20;97.10;;;;;;5074767;28;19913;-87
2023/03/14 04:05:37;;;;;;;;;;;15.10;97.10;;;;;;5074554;28;20170;-88
2023/03/14 04:08:03;;;;;;;;;;;15.10;97.10;;;;;;5108999;28;19919;-86
2023/03/14 04:10:29;;;;;;;;;;;15.10;97.10;;;;;;5075999;28;19912;-88
2023/03/14 04:12:55;;;;;;;;;;;15.10;97.10;;;;;;5109516;28;19983;-88
2023/03/14 04:15:20;;;;;;;;;;;15.10;97.10;;;;;;5096116;28;19919;-88
2023/03/14 04:17:45;;;;;;;;;;;15.10;97.10;;;;;;5077670;28;19908;-88
2023/03/14 04:20:12;;;;;;;;;;;15.10;97.10;;;;;;5110898;28;20018;-88
2023/03/14 04:22:37;;;;;;;;;;;15.10;97.10;;;;;;5112189;28;19912;-88
2023/03/14 04:25:03;;;;;;;;;;;15.10;97.10;;;;;;5078433;28;19935;-88
2023/03/14 04:27:29;;;;;;;;;;;15.10;97.10;;;;;;5094075;28;19989;-88
2023/03/14 04:29:55;;;;;;;;;;;15.10;97.10;;;;;;5094689;28;19918;-89
2023/03/14 04:32:20;;;;;;;;;;;15.10;97.10;;;;;;5112287;28;19970;-88
2023/03/14 04:34:46;;;;;;;;;;;15.10;97.10;;;;;;5097835;28;20003;-88
2023/03/14 04:37:12;;;;;;;;;;;15.00;97.10;;;;;;5099167;28;19950;-88
2023/03/14 04:39:37;;;;;;;;;;;15.00;97.10;;;;;;5080335;28;19908;-88
2023/03/14 04:42:03;;;;;;;;;;;15.10;97.10;;;;;;5079057;28;19944;-87
2023/03/14 04:44:29;;;;;;;;;;;15.00;97.10;;;;;;5078326;28;19951;-87
2023/03/14 04:46:54;;;;;;;;;;;15.00;97.10;;;;;;5113825;28;20166;-88
2023/03/14 04:49:20;;;;;;;;;;;15.00;97.10;;;;;;5112684;28;19962;-88
2023/03/14 04:51:46;;;;;;;;;;;15.10;97.10;;;;;;5079336;28;20376;-87
2023/03/14 04:54:11;;;;;;;;;;;15.00;97.10;;;;;;5112704;28;19908;-87
2023/03/14 04:56:37;;;;;;;;;;;15.00;97.10;;;;;;5112583;28;19973;-87
2023/03/14 04:59:03;;;;;;;;;;;15.00;97.00;;;;;;5113020;28;20172;-87
2023/03/14 05:01:29;;;;;;;;;;;15.00;97.10;;;;;;5080393;28;20224;-87
2023/03/14 05:03:54;;;;;;;;;;;15.00;97.10;;;;;;5113849;28;20342;-87
2023/03/14 05:06:20;;;;;;;;;;;15.00;97.10;;;;;;5079248;28;19923;-87
2023/03/14 05:08:46;;;;;;;;;;;15.00;97.10;;;;;;5096045;28;19923;-87
2023/03/14 05:11:12;;;;;;;;;;;15.00;97.10;;;;;;5079964;28;19915;-87
2023/03/14 05:13:38;;;;;;;;;;;15.00;97.10;;;;;;5113619;28;20400;-88
2023/03/14 05:16:05;;;;;;;;;;;15.00;97.10;;;;;;5094757;28;19995;-88
2023/03/14 05:18:30;;;;;;;;;;;15.00;97.10;;;;;;5095696;28;19907;-87
2023/03/14 05:20:56;;;;;;;;;;;15.00;97.10;;;;;;5078576;28;19919;-88
2023/03/14 05:23:21;;;;;;;;;;;15.00;97.10;;;;;;5112357;28;20323;-87
2023/03/14 05:25:47;;;;;;;;;;;15.00;97.10;;;;;;5111976;28;20227;-87
2023/03/14 05:28:13;;;;;;;;;;;15.00;97.10;;;;;;5109598;28;19908;-87
2023/03/14 05:30:38;;;;;;;;;;;15.00;97.10;;;;;;5111158;28;19954;-87
2023/03/14 05:33:04;;;;;;;;;;;15.00;97.10;;;;;;5112679;28;19917;-87
2023/03/14 05:35:29;;;;;;;;;;;15.00;97.10;;;;;;5095162;28;20162;-87
2023/03/14 05:37:55;;;;;;;;;;;15.00;97.10;;;;;;5111757;28;19908;-86
2023/03/14 05:40:20;;;;;;;;;;;15.00;97.10;;;;;;5095585;28;20300;-87
2023/03/14 05:42:46;;;;;;;;;;;15.00;97.10;;;;;;5079262;28;20257;-86
2023/03/14 05:45:12;;;;;;;;;;;15.00;97.10;;;;;;5112002;28;19916;-87
2023/03/14 05:47:37;;;;;;;;;;;15.00;97.10;;;;;;5096388;28;19999;-87
2023/03/14 05:50:03;;;;;;;;;;;15.00;97.10;;;;;;5112468;28;20245;-87
2023/03/14 05:52:29;;;;;;;;;;;15.00;97.10;;;;;;5076447;28;20185;-87
2023/03/14 05:54:54;;;;;;;;;;;15.00;97.10;;;;;;5111967;28;19908;-87
2023/03/14 05:57:20;;;;;;;;;;;15.00;97.10;;;;;;5112676;28;20254;-87
2023/03/14 05:59:45;;;;;;;;;;;15.00;97.10;;;;;;5112900;28;19909;-88
2023/03/14 06:02:11;;;;;;;;;;;15.00;97.10;;;;;;5112366;28;19920;-87
2023/03/14 06:04:37;;;;;;;;;;;15.00;97.20;;;;;;5109726;28;19908;-87
2023/03/14 06:07:03;;;;;;;;;;;15.00;97.10;;;;;;5092777;28;19962;-87
2023/03/14 06:09:28;;;;;;;;;;;15.00;97.10;;;;;;5073709;28;20280;-87
2023/03/14 06:11:54;;;;;;;;;;;15.00;97.20;;;;;;5072696;28;19919;-87
2023/03/14 06:14:19;;;;;;;;;;;15.00;97.10;;;;;;5072903;28;19913;-87
2023/03/14 06:16:45;;;;;;;;;;;15.00;97.10;;;;;;5107480;28;20019;-87
2023/03/14 06:19:11;;;;;;;;;;;15.00;97.10;;;;;;5093321;28;19918;-87
2023/03/14 06:21:37;;;;;;;;;;;15.00;97.10;;;;;;5110429;28;19941;-87
2023/03/14 06:24:03;;;;;;;;;;;15.00;97.10;;;;;;5106372;28;19908;-87
2023/03/14 06:26:29;;;;;;;;;;;15.00;97.10;;;;;;5106097;28;19938;-87
2023/03/14 06:28:55;;;;;;;;;;;15.00;97.10;;;;;;5088929;28;20281;-87
2023/03/14 06:31:20;;;;;;;;;;;15.00;97.00;;;;;;5104422;28;19923;-87
2023/03/14 06:33:46;;;;;;;;;;;15.00;97.00;;;;;;5087128;28;19931;-87
2023/03/14 06:36:12;;;;;;;;;;;15.00;97.10;;;;;;5104458;28;19989;-87
2023/03/14 06:38:37;;;;;;;;;;;15.00;97.10;;;;;;5103850;28;19909;-87
2023/03/14 06:41:07;;;;;;;;;;;15.00;97.10;;;;;;5070050;28;19915;-87
2023/03/14 06:43:32;;;;;;;;;;;15.00;97.20;;;;;;5087973;28;19923;-87
2023/03/14 06:45:58;;;;;;;;;;;15.00;97.40;;;;;;5071596;28;19916;-87
2023/03/14 06:48:23;;;;;;;;;;;15.00;97.30;;;;;;5085802;28;20272;-87
2023/03/14 06:50:49;;;;;;;;;;;15.00;97.20;;;;;;5071523;28;19912;-87
2023/03/14 06:53:14;;;;;;;;;;;15.10;97.20;;;;;;5104237;28;19985;-87
2023/03/14 06:55:40;;;;;;;;;;;15.00;97.10;;;;;;5104508;28;20231;-87
2023/03/14 06:58:07;;;;;;;;;;;15.10;97.10;;;;;;5085317;28;20015;-87
2023/03/14 07:00:38;;;;;;;;;;;15.00;97.10;;;;;;5103452;28;20001;-87
2023/03/14 07:03:04;;;;;;;;;;;15.10;97.10;;;;;;5066376;28;20277;-87
2023/03/14 07:05:30;;;;;;;;;;;15.10;97.10;;;;;;5087123;28;19912;-87
2023/03/14 07:07:55;;;;;;;;;;;15.10;97.10;;;;;;5086601;28;20032;-86
2023/03/14 07:10:21;;;;;;;;;;;15.10;97.10;;;;;;5104586;28;19908;-86
2023/03/14 07:12:46;;;;;;;;;;;15.10;97.10;;;;;;5102294;28;19908;-87
2023/03/14 07:15:12;;;;;;;;;;;15.10;97.00;;;;;;5085176;28;19919;-87
2023/03/14 07:17:38;;;;;;;;;;;15.10;97.00;;;;;;5085256;28;19909;-86
2023/03/14 07:20:04;;;;;;;;;;;15.20;97.00;;;;;;5101618;28;20142;-87
2023/03/14 07:22:30;;;;;;;;;;;15.20;96.90;;;;;;5067798;28;20011;-87
2023/03/14 07:24:55;;;;;;;;;;;15.20;96.80;;;;;;5066434;28;20052;-87
2023/03/14 07:27:21;;;;;;;;;;;15.20;96.80;;;;;;5083675;28;20181;-87
2023/03/14 07:29:46;;;;;;;;;;;15.20;96.80;;;;;;5065544;28;19919;-87
2023/03/14 07:32:14;;;;;;;;;;;15.20;96.80;;;;;;5070040;28;20015;-87
2023/03/14 07:34:43;;;;;;;;;;;15.20;96.90;;;;;;5105349;28;19915;-87
2023/03/14 07:37:08;;;;;;;;;;;15.20;97.00;;;;;;5103019;28;19919;-87
2023/03/14 07:39:34;;;;;;;;;;;15.20;97.10;;;;;;5069548;28;20140;-87
2023/03/14 07:42:00;;;;;;;;;;;15.20;97.40;;;;;;5103905;28;20172;-87
2023/03/14 07:44:26;;;;;;;;;;;15.30;97.40;;;;;;5069305;28;19916;-86
2023/03/14 07:46:51;;;;;;;;;;;15.30;97.50;;;;;;5103283;28;19912;-87
2023/03/14 07:49:17;;;;;;;;;;;15.40;97.40;;;;;;5103017;28;19966;-87
2023/03/14 07:51:43;;;;;;;;;;;15.40;97.40;;;;;;5085216;28;20011;-86
2023/03/14 07:54:09;;;;;;;;;;;15.40;97.50;;;;;;5066488;28;20036;-87
2023/03/14 07:56:35;;;;;;;;;;;15.40;97.40;;;;;;5083228;28;19908;-87
2023/03/14 07:59:01;;;;;;;;;;;15.40;97.50;;;;;;5101166;28;20262;-86
2023/03/14 08:01:26;;;;;;;;;;;15.40;97.50;;;;;;5101874;28;19912;-87
2023/03/14 08:03:52;;;;;;;;;;;15.50;97.50;;;;;;5102120;28;19916;-86
2023/03/14 08:06:18;;;;;;;;;;;15.50;97.50;;;;;;5103049;28;19920;-86
2023/03/14 08:08:43;;;;;;;;;;;15.50;97.50;;;;;;5102932;28;20160;-87
2023/03/14 08:11:09;;;;;;;;;;;15.50;97.60;;;;;;5105597;28;19919;-87
2023/03/14 08:13:35;;;;;;;;;;;15.50;97.70;;;;;;5070538;28;19915;-87
2023/03/14 08:16:01;;;;;;;;;;;15.50;97.80;;;;;;5070000;28;20323;-87
2023/03/14 08:18:26;;;;;;;;;;;15.50;97.70;;;;;;5101726;28;20282;-87
2023/03/14 08:20:52;;;;;;;;;;;15.50;97.70;;;;;;5099105;28;20256;-86
2023/03/14 08:23:17;;;;;;;;;;;15.50;97.60;;;;;;5065782;28;20113;-87
2023/03/14 08:25:43;;;;;;;;;;;15.50;97.50;;;;;;5101363;28;20255;-87
2023/03/14 08:28:09;;;;;;;;;;;15.50;97.40;;;;;;5066700;28;19989;-87
2023/03/14 08:30:34;;;;;;;;;;;15.50;97.40;;;;;;5100370;28;19908;-86
2023/03/14 08:33:00;;;;;;;;;;;15.50;97.40;;;;;;5067576;28;19922;-86
2023/03/14 08:35:26;;;;;;;;;;;15.60;97.30;;;;;;5100210;28;19908;-87
2023/03/14 08:37:52;;;;;;;;;;;15.60;97.30;;;;;;5085899;28;20222;-89
2023/03/14 08:40:17;;;;;;;;;;;15.60;97.30;;;;;;5068325;28;19908;-87
2023/03/14 08:42:43;;;;;;;;;;;15.60;97.30;;;;;;5086806;28;19985;-87
2023/03/14 08:45:10;;;;;;;;;;;15.50;97.30;;;;;;5084590;28;19922;-86
2023/03/14 08:47:36;;;;;;;;;;;15.50;97.30;;;;;;5085765;28;19933;-87
2023/03/14 08:50:03;;;;;;;;;;;15.60;97.30;;;;;;5103590;28;19908;-87
2023/03/14 08:52:30;;;;;;;;;;;15.60;97.30;;;;;;5087138;28;20290;-86
2023/03/14 08:54:56;;;;;;;;;;;15.60;97.20;;;;;;5069501;28;19908;-87
2023/03/14 08:57:21;;;;;;;;;;;15.60;97.20;;;;;;5069432;28;20360;-86
2023/03/14 08:59:47;;;;;;;;;;;15.60;97.20;;;;;;5104163;28;20007;-86
2023/03/14 09:02:13;;;;;;;;;;;15.60;97.30;;;;;;5068648;28;20185;-86
2023/03/14 09:04:38;;;;;;;;;;;15.60;97.20;;;;;;5102094;28;19908;-86
2023/03/14 09:07:04;;;;;;;;;;;15.70;97.20;;;;;;5069530;28;19942;-86
2023/03/14 09:09:30;;;;;;;;;;;15.70;97.20;;;;;;5113267;27;19924;-87
2023/03/14 09:11:56;;;;;;;;;;;15.70;97.10;;;;;;5088800;28;19916;-86
2023/03/14 09:14:21;;;;;;;;;;;15.70;97.00;;;;;;5068929;28;19908;-86
2023/03/14 09:16:47;;;;;;;;;;;15.80;97.00;;;;;;5102770;28;20265;-87
2023/03/14 09:19:13;;;;;;;;;;;15.70;97.00;;;;;;5103950;28;19938;-87
2023/03/14 09:21:38;;;;;;;;;;;15.70;97.00;;;;;;5090982;28;19912;-87
2023/03/14 09:24:04;;;;;;;;;;;15.70;97.10;;;;;;5073401;28;19919;-88
2023/03/14 09:26:30;;;;;;;;;;;15.60;97.10;;;;;;5070792;28;20274;-88
2023/03/14 09:28:56;;;;;;;;;;;15.60;97.30;;;;;;5106873;28;19922;-88
2023/03/14 09:31:22;;;;;;;;;;;15.60;97.30;;;;;;5070936;28;20269;-88
2023/03/14 09:33:48;;;;;;;;;;;15.60;97.30;;;;;;5070500;28;19916;-88
2023/03/14 09:36:13;;;;;;;;;;;15.50;97.40;;;;;;5104769;28;19913;-87
2023/03/14 09:38:39;;;;;;;;;;;15.60;97.50;;;;;;5090453;28;19908;-88
2023/03/14 09:41:12;;;;;;;;;;;15.60;97.50;;;;;;5073655;28;20164;-87
2023/03/14 09:43:39;;;;;;;;;;;15.60;97.40;;;;;;5073737;28;19954;-87
2023/03/14 09:46:05;;;;;;;;;;;15.50;97.50;;;;;;5106438;28;19943;-87
2023/03/14 09:48:32;;;;;;;;;;;15.50;97.60;;;;;;5072403;28;19981;-87
2023/03/14 09:50:59;;;;;;;;;;;15.50;97.70;;;;;;5074763;28;19915;-87
2023/03/14 09:53:44;;;;;;;;;;;15.60;97.70;;;;;;5074131;28;19973;-87
2023/03/14 09:56:18;;;;;;;;;;;15.60;97.70;;;;;;5091776;28;20148;-88
2023/03/14 09:58:47;;;;;;;;;;;15.60;97.60;;;;;;5074777;28;19973;-88
2023/03/14 10:01:15;;;;;;;;;;;15.60;97.70;;;;;;5075971;28;19916;-90
2023/03/14 10:03:42;;;;;;;;;;;15.60;97.70;;;;;;5074685;28;19908;-89
2023/03/14 10:06:13;;;;;;;;;;;15.60;97.70;;;;;;5072567;28;19924;-88
2023/03/14 10:08:43;;;;;;;;;;;15.60;97.60;;;;;;5073052;28;19969;-89
2023/03/14 10:11:13;;;;;;;;;;;15.60;97.60;;;;;;5071803;28;19958;-88
2023/03/14 10:13:47;;;;;;;;;;;15.60;97.60;;;;;;5072784;28;19959;-89
2023/03/14 10:16:13;;;;;;;;;;;15.60;97.60;;;;;;5090253;28;19915;-88
2023/03/14 10:18:44;;;;;;;;;;;15.60;97.60;;;;;;5073687;28;20019;-89
2023/03/14 10:21:18;;;;;;;;;;;15.60;97.70;;;;;;5071711;28;19920;-89
2023/03/14 10:23:44;;;;;;;;;;;15.60;97.70;;;;;;5072210;28;19931;-88
2023/03/14 10:26:14;;;;;;;;;;;15.60;97.70;;;;;;5090620;28;20316;-88
2023/03/14 10:28:47;;;;;;;;;;;15.60;97.80;;;;;;5087406;28;19997;-86
2023/03/14 10:31:13;;;;;;;;;;;15.60;97.80;;;;;;5069614;28;19993;-86
2023/03/14 10:33:39;;;;;;;;;;;15.60;97.70;;;;;;5068006;28;19967;-86
2023/03/14 10:36:28;;;;;;;;;;;15.60;97.70;;;;;;5070066;28;19919;-86
2023/03/14 10:38:57;;;;;;;;;;;15.70;97.70;;;;;;5058996;28;20156;-85
2023/03/14 10:41:23;;;;;;;;;;;15.70;97.70;;;;;;5070088;28;20406;-86
2023/03/14 10:43:58;;;;;;;;;;;15.70;97.60;;;;;;5102597;28;20012;-86
2023/03/14 10:46:25;;;;;;;;;;;15.70;97.60;;;;;;5070959;28;19966;-86
2023/03/14 10:48:51;;;;;;;;;;;15.60;97.70;;;;;;5071155;28;19939;-85
2023/03/14 10:51:17;;;;;;;;;;;15.60;97.70;;;;;;5072535;28;19966;-86
2023/03/14 10:53:47;;;;;;;;;;;15.60;97.80;;;;;;5103021;28;20196;-85
2023/03/14 10:56:23;;;;;;;;;;;15.50;97.90;;;;;;5069227;28;19918;-85
2023/03/14 10:58:50;;;;;;;;;;;15.50;97.90;;;;;;5071497;28;20169;-87
2023/03/14 11:01:34;;;;;;;;;;;15.50;98.00;;;;;;5070671;28;19916;-86
2023/03/14 11:04:06;;;;;;;;;;;15.50;98.00;;;;;;5103400;28;19908;-86
2023/03/14 11:06:38;;;;;;;;;;;15.60;98.00;;;;;;5102551;28;20159;-86
2023/03/14 11:09:22;;;;;;;;;;;15.60;97.90;;;;;;5101460;28;19912;-87
2023/03/14 11:11:48;;;;;;;;;;;15.60;97.90;;;;;;5101834;28;20520;-86
2023/03/14 11:14:18;;;;;;;;;;;15.60;97.90;;;;;;5097145;28;20072;-86
2023/03/14 11:16:51;;;;;;;;;;;15.60;97.90;;;;;;5083540;28;20572;-86
2023/03/14 11:19:22;;;;;;;;;;;15.60;97.90;;;;;;5083363;28;19958;-86
2023/03/14 11:21:58;;;;;;;;;;;15.60;97.90;;;;;;5098656;28;19912;-87
2023/03/14 11:24:39;;;;;;;;;;;15.60;97.90;;;;;;5065297;28;20254;-86
2023/03/14 11:27:16;;;;;;;;;;;15.50;97.90;;;;;;5066297;28;19923;-86
2023/03/14 11:29:50;;;;;;;;;;;15.50;97.90;;;;;;5066975;28;19947;-86
2023/03/14 11:32:31;;;;;;;;;;;15.60;97.90;;;;;;5064251;28;20075;-86
2023/03/14 11:34:58;;;;;;;;;;;15.70;97.80;;;;;;5065993;28;20072;-86
2023/03/14 11:37:26;;;;;;;;;;;15.80;97.60;;;;;;5082667;28;19912;-86
2023/03/14 11:39:55;;;;;;;;;;;15.80;97.30;;;;;;5066937;28;20477;-87
2023/03/14 11:42:22;;;;;;;;;;;15.80;97.30;;;;;;5065263;28;20329;-86
2023/03/14 11:44:48;;;;;;;;;;;15.80;97.50;;;;;;5067634;28;20209;-86
2023/03/14 11:47:14;;;;;;;;;;;15.80;97.50;;;;;;5067843;28;19915;-86
2023/03/14 11:49:50;;;;;;;;;;;15.80;97.40;;;;;;5100443;28;20435;-86
2023/03/14 11:52:31;;;;;;;;;;;15.80;97.30;;;;;;5066169;28;20059;-86
2023/03/14 11:55:00;;;;;;;;;;;15.80;97.20;;;;;;5100549;28;19918;-86
2023/03/14 11:57:25;;;;;;;;;;;15.80;97.20;;;;;;5065137;28;19924;-86
2023/03/14 11:59:54;;;;;;;;;;;15.70;97.10;;;;;;5099107;28;20032;-86
2023/03/14 12:02:20;;;;;;;;;;;15.70;97.10;;;;;;5098892;28;19961;-86
2023/03/14 12:04:54;;;;;;;;;;;15.70;97.10;;;;;;5096450;28;19908;-86
2023/03/14 12:07:23;;;;;;;;;;;15.70;97.10;;;;;;5099415;28;19919;-86
2023/03/14 12:09:50;;;;;;;;;;;15.70;97.00;;;;;;5066652;28;20221;-86
2023/03/14 12:12:25;;;;;;;;;;;15.70;96.90;;;;;;5082204;28;19908;-86
2023/03/14 12:14:58;;;;;;;;;;;15.70;96.90;;;;;;5066336;28;19983;-86
2023/03/14 12:17:23;;;;;;;;;;;15.70;97.00;;;;;;5083737;28;20264;-87
2023/03/14 12:20:09;;;;;;;;;;;15.70;97.10;;;;;;5100519;28;20179;-87
2023/03/14 12:22:41;;;;;;;;;;;15.60;97.10;;;;;;5099476;28;19920;-87
2023/03/14 12:25:10;;;;;;;;;;;15.60;97.20;;;;;;5066665;28;19916;-87
2023/03/14 12:27:44;;;;;;;;;;;15.50;97.20;;;;;;5099011;28;19912;-87
2023/03/14 12:30:20;;;;;;;;;;;15.50;97.30;;;;;;5065624;28;19915;-87
2023/03/14 12:33:04;;;;;;;;;;;15.50;97.30;;;;;;5096794;28;20410;-87
2023/03/14 12:35:41;;;;;;;;;;;15.50;97.30;;;;;;5101476;28;20356;-87
2023/03/14 12:38:12;;;;;;;;;;;15.50;97.40;;;;;;5083376;28;19992;-88
2023/03/14 12:40:53;;;;;;;;;;;15.50;97.40;;;;;;5064333;28;19968;-86
2023/03/14 12:43:26;;;;;;;;;;;15.50;97.30;;;;;;5084810;28;19909;-87
2023/03/14 12:46:11;;;;;;;;;;;15.60;97.20;;;;;;5083344;28;19984;-87
2023/03/14 12:48:38;;;;;;;;;;;15.60;97.10;;;;;;5083739;28;20143;-87
2023/03/14 12:51:05;;;;;;;;;;;15.60;96.90;;;;;;5066562;28;19934;-87
2023/03/14 12:53:39;;;;;;;;;;;15.60;96.90;;;;;;5066814;28;20467;-87
2023/03/14 12:56:40;;;;;;;;;;;15.70;96.80;;;;;;5104508;28;19915;-87
2023/03/14 12:59:21;;;;;;;;;;;15.70;96.60;;;;;;5007499;28;19909;-87
2023/03/14 13:02:15;;;;;;;;;;;15.70;96.50;;;;;;5080651;28;19936;-87
2023/03/14 13:04:46;;;;;;;;;;;15.70;96.50;;;;;;5055490;28;19908;-87
2023/03/14 13:07:13;;;;;;;;;;;15.70;96.50;;;;;;5070229;28;20299;-87
2023/03/14 13:09:57;;;;;;;;;;;15.70;96.50;;;;;;5069877;28;19947;-87
2023/03/14 13:12:27;;;;;;;;;;;15.70;96.50;;;;;;5102016;28;20188;-87
2023/03/14 13:14:53;;;;;;;;;;;15.60;96.60;;;;;;5068136;28;19908;-87
2023/03/14 13:17:33;;;;;;;;;;;15.60;96.70;;;;;;5070227;28;19918;-90
2023/03/14 13:20:02;;;;;;;;;;;15.50;96.70;;;;;;5086003;28;19914;-89
2023/03/14 13:22:28;;;;;;;;;;;15.50;96.70;;;;;;5067301;28;19915;-88
2023/03/14 13:25:07;;;;;;;;;;;15.40;96.80;;;;;;5065350;28;19952;-88
2023/03/14 13:27:33;;;;;;;;;;;15.40;96.80;;;;;;5066793;28;20258;-88
2023/03/14 13:30:04;;;;;;;;;;;15.40;96.90;;;;;;5067670;28;19915;-88
2023/03/14 13:32:30;;;;;;;;;;;15.40;96.80;;;;;;5076204;28;20093;-88
2023/03/14 13:34:57;;;;;;;;;;;15.40;96.80;;;;;;5068786;28;20295;-88
2023/03/14 13:37:23;;;;;;;;;;;15.50;96.70;;;;;;5068303;28;19908;-88
2023/03/14 13:39:56;;;;;;;;;;;15.50;96.90;;;;;;5067906;28;19908;-87
2023/03/14 13:42:27;;;;;;;;;;;15.50;96.60;;;;;;5067347;28;19904;-88
2023/03/14 13:44:54;;;;;;;;;;;15.50;96.60;;;;;;5065822;28;20002;-87
2023/03/14 13:47:24;;;;;;;;;;;15.50;96.80;;;;;;5084970;28;19923;-88
2023/03/14 13:49:49;;;;;;;;;;;15.50;96.90;;;;;;5067033;28;20208;-88
2023/03/14 13:52:29;;;;;;;;;;;15.50;97.20;;;;;;5075890;28;19908;-88
2023/03/14 13:54:56;;;;;;;;;;;15.40;97.30;;;;;;5072214;28;19912;-87
2023/03/14 13:57:22;;;;;;;;;;;15.40;97.40;;;;;;5071523;28;19934;-87
2023/03/14 14:00:09;;;;;;;;;;;15.40;97.40;;;;;;5070575;28;19908;-88
2023/03/14 14:02:39;;;;;;;;;;;15.40;97.40;;;;;;5069354;28;20394;-88
2023/03/14 14:05:05;;;;;;;;;;;15.40;97.30;;;;;;5086751;28;20134;-87
2023/03/14 14:07:30;;;;;;;;;;;15.40;97.30;;;;;;5087659;28;20220;-87
2023/03/14 14:09:58;;;;;;;;;;;15.30;97.30;;;;;;5069106;28;20097;-87
2023/03/14 14:12:33;;;;;;;;;;;15.30;97.20;;;;;;5069898;28;20147;-87
2023/03/14 14:14:58;;;;;;;;;;;15.40;97.20;;;;;;5069905;28;20162;-88
2023/03/14 14:17:26;;;;;;;;;;;15.50;97.00;;;;;;5069178;28;19939;-87
2023/03/14 14:19:52;;;;;;;;;;;15.50;96.80;;;;;;5069608;28;19919;-87
2023/03/14 14:22:18;;;;;;;;;;;15.50;96.70;;;;;;5087207;28;19908;-88